Time;durP1;ratioP1;P1;durP2;ratioP2;P2;SDS_P1;SDS_P2;PMS_P1;PMS_P2;Temp;Humidity;BMP_temperature;BMP_pressure;BME280_temperature;BME280_humidity;BME280_pressure;Samples;Min_cycle;Max_cycle;Signal;HPM_P1;HPM_P2
2023/11/07 00:02:13;;;;;;;7.35;3.15;;;;;;;8.72;100.00;100515.13;5083461;28;20048;-75
2023/11/07 00:04:39;;;;;;;4.72;3.20;;;;;;;8.74;100.00;100515.06;5082180;28;20205;-75
2023/11/07 00:07:04;;;;;;;4.85;2.92;;;;;;;8.72;100.00;100516.91;5083961;28;20303;-75
2023/11/07 00:09:30;;;;;;;6.25;3.10;;;;;;;8.71;100.00;100515.19;5082111;28;20020;-75
2023/11/07 00:11:56;;;;;;;7.78;2.72;;;;;;;8.71;100.00;100526.47;5083048;28;20246;-75
2023/11/07 00:14:22;;;;;;;8.38;2.70;;;;;;;8.72;100.00;100522.13;5083865;28;20055;-75
2023/11/07 00:16:48;;;;;;;4.63;2.90;;;;;;;8.72;100.00;100522.97;5091136;28;20324;-75
2023/11/07 00:19:13;;;;;;;5.55;2.72;;;;;;;8.75;100.00;100529.81;5094051;28;20199;-75
2023/11/07 00:21:39;;;;;;;8.27;3.08;;;;;;;8.73;100.00;100529.91;5093909;28;20195;-75
2023/11/07 00:24:04;;;;;;;5.55;2.90;;;;;;;8.76;100.00;100539.38;5094312;28;20095;-75
2023/11/07 00:26:30;;;;;;;9.65;3.35;;;;;;;8.75;100.00;100527.19;5093585;28;20047;-75
2023/11/07 00:28:55;;;;;;;8.05;2.92;;;;;;;8.79;100.00;100544.47;5094406;28;20063;-75
2023/11/07 00:31:21;;;;;;;8.32;3.00;;;;;;;8.78;100.00;100548.81;5094301;28;20036;-75
2023/11/07 00:33:46;;;;;;;5.40;2.78;;;;;;;8.76;100.00;100544.59;5094018;28;20055;-75
2023/11/07 00:36:12;;;;;;;6.47;3.00;;;;;;;8.76;100.00;100532.38;5094155;28;20063;-75
2023/11/07 00:38:37;;;;;;;6.65;3.20;;;;;;;8.80;100.00;100535.72;5092527;28;20028;-75
2023/11/07 00:41:03;;;;;;;5.43;2.20;;;;;;;8.80;100.00;100540.94;5093217;28;20091;-75
2023/11/07 00:43:28;;;;;;;5.20;2.55;;;;;;;8.77;100.00;100548.91;5093688;28;20400;-75
2023/11/07 00:45:54;;;;;;;9.30;2.50;;;;;;;8.76;100.00;100548.03;5094440;28;20035;-75
2023/11/07 00:48:19;;;;;;;5.30;2.45;;;;;;;8.76;100.00;100544.59;5094147;28;20039;-75
2023/11/07 00:50:44;;;;;;;6.30;2.17;;;;;;;8.75;100.00;100548.09;5093470;28;20031;-75
2023/11/07 00:53:10;;;;;;;6.88;3.15;;;;;;;8.79;100.00;100547.09;5076020;28;20023;-75
2023/11/07 00:55:35;;;;;;;6.05;2.80;;;;;;;8.80;100.00;100556.59;5093535;28;20099;-75
2023/11/07 00:58:00;;;;;;;3.70;2.35;;;;;;;8.82;100.00;100565.22;5094283;28;20027;-75
2023/11/07 01:00:27;;;;;;;5.40;2.63;;;;;;;8.84;100.00;100574.72;5075794;28;20035;-75
2023/11/07 01:02:52;;;;;;;4.25;2.40;;;;;;;8.85;100.00;100578.19;5080051;28;20036;-75
2023/11/07 01:05:18;;;;;;;3.33;2.13;;;;;;;8.86;100.00;100571.19;5074107;28;20039;-75
2023/11/07 01:07:44;;;;;;;4.78;2.47;;;;;;;8.86;100.00;100576.41;5072976;28;20187;-75
2023/11/07 01:10:09;;;;;;;5.88;2.92;;;;;;;8.82;100.00;100573.06;5073605;28;20047;-75
2023/11/07 01:12:35;;;;;;;7.68;3.00;;;;;;;8.81;100.00;100576.59;5073118;28;20362;-75
2023/11/07 01:15:03;;;;;;;5.90;2.30;;;;;;;8.86;100.00;100592.09;5073935;28;20040;-75
2023/11/07 01:17:28;;;;;;;3.75;3.05;;;;;;;8.84;100.00;100587.78;5073145;28;20040;-75
2023/11/07 01:19:54;;;;;;;8.05;3.08;;;;;;;8.89;100.00;100592.81;5075552;28;20044;-75
2023/11/07 01:22:20;;;;;;;3.67;3.05;;;;;;;8.92;100.00;100591.88;5077667;28;20044;-75
2023/11/07 01:24:46;;;;;;;8.82;3.05;;;;;;;8.93;100.00;100583.09;5077212;28;20254;-75
2023/11/07 01:27:12;;;;;;;20.42;3.92;;;;;;;8.94;100.00;100587.44;5077813;28;20028;-75
2023/11/07 01:29:37;;;;;;;4.78;2.90;;;;;;;8.96;100.00;100580.41;5077166;28;20327;-75
2023/11/07 01:32:03;;;;;;;8.02;3.38;;;;;;;8.97;100.00;100587.34;5077787;28;20115;-75
2023/11/07 01:34:28;;;;;;;6.15;3.20;;;;;;;8.98;100.00;100589.00;5077061;28;20051;-75
2023/11/07 01:36:53;;;;;;;5.97;3.08;;;;;;;8.99;100.00;100585.50;5077387;28;20287;-75
2023/11/07 01:39:19;;;;;;;4.28;2.95;;;;;;;8.98;100.00;100587.25;5077314;28;20044;-75
2023/11/07 01:41:44;;;;;;;6.07;2.33;;;;;;;9.00;100.00;100574.13;5076546;28;20033;-75
2023/11/07 01:44:10;;;;;;;5.00;2.60;;;;;;;8.99;100.00;100577.66;5077167;28;20234;-75
2023/11/07 01:46:36;;;;;;;5.63;2.75;;;;;;;9.03;100.00;100576.63;5076540;28;20032;-75
2023/11/07 01:49:02;;;;;;;2.80;2.30;;;;;;;9.02;100.00;100570.56;5077249;28;20036;-75
2023/11/07 01:51:28;;;;;;;4.50;2.25;;;;;;;9.03;100.00;100579.25;5076550;28;20036;-75
2023/11/07 01:53:54;;;;;;;4.43;2.47;;;;;;;9.01;100.00;100584.53;5077225;28;20034;-75
2023/11/07 01:56:23;;;;;;;8.40;2.50;;;;;;;8.99;100.00;100580.28;5076862;28;20135;-75
2023/11/07 01:58:48;;;;;;;3.30;2.40;;;;;;;8.99;100.00;100577.66;5076860;28;20242;-75
2023/11/07 02:04:46;;;;;;;3.92;2.50;;;;;;;8.98;100.00;100581.19;5095242;28;20036;-75
2023/11/07 02:07:12;;;;;;;7.03;2.80;;;;;;;8.97;100.00;100585.56;5076647;28;20044;-75
2023/11/07 02:09:38;;;;;;;6.95;2.97;;;;;;;8.96;100.00;100588.22;5076209;28;20048;-75
2023/11/07 02:12:04;;;;;;;5.32;2.60;;;;;;;8.94;100.00;100588.28;5076421;28;20095;-75
2023/11/07 02:14:35;;;;;;;7.32;2.40;;;;;;;8.94;100.00;100583.06;5076333;28;20033;-75
2023/11/07 02:17:01;;;;;;;6.07;2.25;;;;;;;8.96;100.00;100586.47;5076610;28;20044;-75
2023/11/07 02:19:26;;;;;;;6.82;2.30;;;;;;;8.96;100.00;100594.28;5063733;28;20037;-75
2023/11/07 02:21:53;;;;;;;6.40;2.60;;;;;;;8.94;100.00;100592.66;5056383;28;20037;-75
2023/11/07 02:24:18;;;;;;;4.05;2.63;;;;;;;8.97;100.00;100600.41;5055359;28;20044;-75
2023/11/07 02:26:44;;;;;;;3.60;2.22;;;;;;;8.96;100.00;100596.91;5055293;28;20139;-75
2023/11/07 02:29:10;;;;;;;4.28;2.20;;;;;;;8.99;100.00;100598.56;5056190;28;20047;-75
2023/11/07 02:31:35;;;;;;;6.78;2.90;;;;;;;8.97;100.00;100589.94;5054868;28;20041;-75
2023/11/07 02:34:05;;;;;;;10.90;2.63;;;;;;;8.95;100.00;100583.91;5056645;28;20369;-75
2023/11/07 02:36:32;;;;;;;5.90;2.50;;;;;;;8.95;100.00;100590.00;5055922;28;20066;-74
2023/11/07 02:38:57;;;;;;;5.78;2.70;;;;;;;8.95;100.00;100589.13;5055935;28;20096;-75
2023/11/07 02:41:23;;;;;;;9.75;2.30;;;;;;;8.95;100.00;100587.38;5055899;28;20091;-75
2023/11/07 02:43:48;;;;;;;3.80;1.88;;;;;;;8.98;100.00;100592.47;5056012;28;20033;-75
2023/11/07 02:46:13;;;;;;;3.05;2.50;;;;;;;8.97;100.00;100590.78;5055673;28;20336;-75
2023/11/07 02:48:39;;;;;;;4.95;2.35;;;;;;;8.95;100.00;100592.59;5055623;28;20036;-75
2023/11/07 02:51:04;;;;;;;5.45;2.28;;;;;;;8.94;100.00;100598.72;5055867;28;20032;-75
2023/11/07 02:53:30;;;;;;;7.00;2.50;;;;;;;8.94;100.00;100597.88;5055502;28;20099;-74
2023/11/07 02:55:56;;;;;;;5.80;2.20;;;;;;;8.94;100.00;100596.13;5055877;28;20040;-75
2023/11/07 02:58:21;;;;;;;4.22;2.30;;;;;;;8.95;100.00;100603.06;5056177;28;20335;-75
2023/11/07 03:00:47;;;;;;;5.68;2.20;;;;;;;8.95;100.00;100597.84;5055374;28;20037;-75
2023/11/07 03:03:14;;;;;;;3.40;2.38;;;;;;;8.95;100.00;100595.22;5055644;28;20112;-75
2023/11/07 03:05:40;;;;;;;3.35;1.92;;;;;;;8.95;100.00;100600.44;5056160;28;20335;-75
2023/11/07 03:08:07;;;;;;;4.15;2.53;;;;;;;8.94;100.00;100597.88;5075128;28;20045;-75
2023/11/07 03:10:32;;;;;;;2.80;2.25;;;;;;;8.92;100.00;100605.78;5074992;28;20036;-75
2023/11/07 03:13:00;;;;;;;3.63;2.45;;;;;;;8.90;100.00;100597.16;5075497;28;20104;-75
2023/11/07 03:15:25;;;;;;;2.55;2.30;;;;;;;8.87;100.00;100592.03;5075619;28;20032;-75
2023/11/07 03:17:51;;;;;;;5.28;2.60;;;;;;;8.85;100.00;100591.25;5075162;28;20032;-75
2023/11/07 03:20:17;;;;;;;6.75;2.70;;;;;;;8.82;100.00;100584.38;5075311;28;20062;-74
2023/11/07 03:22:42;;;;;;;3.00;2.40;;;;;;;8.82;100.00;100586.13;5074888;28;20055;-74
2023/11/07 03:25:09;;;;;;;4.30;2.33;;;;;;;8.78;100.00;100588.00;5074899;28;20044;-74
2023/11/07 03:27:34;;;;;;;4.32;2.00;;;;;;;8.79;100.00;100583.66;5075226;28;20028;-74
2023/11/07 03:29:59;;;;;;;4.55;2.30;;;;;;;8.74;100.00;100585.56;5075469;28;20514;-74
2023/11/07 03:32:25;;;;;;;6.85;2.30;;;;;;;8.70;100.00;100582.22;5075254;28;20028;-74
2023/11/07 03:34:50;;;;;;;2.90;1.80;;;;;;;8.67;100.00;100578.88;5074715;28;20036;-74
2023/11/07 03:37:15;;;;;;;4.50;2.40;;;;;;;8.67;100.00;100589.31;5074633;28;20036;-74
2023/11/07 03:39:41;;;;;;;3.05;1.90;;;;;;;8.68;100.00;100583.16;5074342;28;20058;-74
2023/11/07 03:42:07;;;;;;;4.40;2.17;;;;;;;8.70;100.00;100587.44;5074262;28;20087;-74
2023/11/07 03:44:34;;;;;;;6.60;2.15;;;;;;;8.70;100.00;100595.28;5074507;28;20068;-74
2023/11/07 03:47:00;;;;;;;2.40;1.80;;;;;;;8.70;100.00;100595.28;5075074;28;20346;-74
2023/11/07 03:49:26;;;;;;;2.95;2.00;;;;;;;8.67;100.00;100586.72;5074834;28;20090;-74
2023/11/07 03:51:52;;;;;;;3.55;1.63;;;;;;;8.67;100.00;100590.16;5074986;28;20036;-74
2023/11/07 03:54:18;;;;;;;2.40;1.50;;;;;;;8.66;100.00;100596.31;5074676;28;20059;-74
2023/11/07 03:56:46;;;;;;;3.28;1.38;;;;;;;8.59;100.00;100600.88;5074130;28;20037;-74
2023/11/07 03:59:11;;;;;;;1.65;1.25;;;;;;;8.59;100.00;100608.72;5074774;28;20043;-74
2023/11/07 04:01:38;;;;;;;1.98;1.30;;;;;;;8.53;100.00;100611.56;5074397;28;20032;-74
2023/11/07 04:04:03;;;;;;;3.75;1.20;;;;;;;8.53;100.00;100608.06;5075153;28;20242;-74
2023/11/07 04:06:30;;;;;;;5.43;1.30;;;;;;;8.53;100.00;100602.84;5074304;28;20103;-74
2023/11/07 04:08:55;;;;;;;1.70;1.33;;;;;;;8.49;100.00;100607.34;5074613;28;20031;-74
2023/11/07 04:11:21;;;;;;;2.38;0.70;;;;;;;8.47;100.00;100609.16;5074279;28;20024;-74
2023/11/07 04:13:47;;;;;;;1.98;0.60;;;;;;;8.43;100.00;100595.34;5074220;28;20070;-74
2023/11/07 04:16:13;;;;;;;1.25;0.80;;;;;;;8.49;100.00;100602.13;5074838;28;20064;-74
2023/11/07 04:18:39;;;;;;;1.67;0.70;;;;;;;8.50;100.00;100601.22;5074137;28;20394;-74
2023/11/07 04:21:07;;;;;;;0.60;0.60;;;;;;;8.47;100.00;100613.53;5074377;28;20044;-74
2023/11/07 04:23:33;;;;;;;1.85;0.50;;;;;;;8.48;100.00;100607.38;5073834;28;20020;-74
2023/11/07 04:25:59;;;;;;;0.50;0.40;;;;;;;8.46;100.00;100610.06;5074473;28;20041;-74
2023/11/07 04:28:25;;;;;;;3.17;0.98;;;;;;;8.42;100.00;100614.56;5074074;28;20440;-74
2023/11/07 04:30:52;;;;;;;0.88;0.57;;;;;;;8.38;100.00;100609.44;5073938;28;20383;-74
2023/11/07 04:33:18;;;;;;;2.13;0.98;;;;;;;8.36;100.00;100619.09;5074043;28;20028;-73
2023/11/07 04:35:44;;;;;;;0.85;0.52;;;;;;;8.38;100.00;100612.06;5073873;28;20028;-74
2023/11/07 04:38:09;;;;;;;1.65;0.60;;;;;;;8.35;100.00;100615.63;5074276;28;20063;-74
2023/11/07 04:40:35;;;;;;;1.13;0.60;;;;;;;8.37;100.00;100615.59;5074092;28;20086;-74
2023/11/07 04:43:01;;;;;;;2.83;0.60;;;;;;;8.38;100.00;100610.28;5074542;28;20055;-74
2023/11/07 04:45:26;;;;;;;1.05;0.50;;;;;;;8.39;100.00;100611.16;5073961;28;20047;-74
2023/11/07 04:47:52;;;;;;;1.85;0.80;;;;;;;8.37;100.00;100613.81;5074336;28;20113;-74
2023/11/07 04:50:17;;;;;;;1.67;0.60;;;;;;;8.36;100.00;100624.31;5073984;28;20024;-74
2023/11/07 04:52:43;;;;;;;2.45;0.47;;;;;;;8.29;100.00;100628.88;5073764;28;20039;-74
2023/11/07 04:55:09;;;;;;;0.80;0.50;;;;;;;8.31;100.00;100629.66;5076419;28;20531;-74
2023/11/07 04:57:34;;;;;;;0.90;0.50;;;;;;;8.30;100.00;100627.13;5077851;28;20036;-74
2023/11/07 05:00:00;;;;;;;0.57;0.40;;;;;;;8.33;100.00;100625.28;5078329;28;20066;-74
2023/11/07 05:02:25;;;;;;;0.93;0.43;;;;;;;8.32;100.00;100639.22;5078206;28;20035;-74
2023/11/07 05:04:51;;;;;;;1.45;0.60;;;;;;;8.32;100.00;100633.16;5077642;28;20064;-74
2023/11/07 05:07:17;;;;;;;1.17;0.50;;;;;;;8.32;100.00;100634.00;5077741;28;20040;-74
2023/11/07 05:09:43;;;;;;;0.47;0.40;;;;;;;8.27;100.00;100621.09;5077779;28;20380;-74
2023/11/07 05:12:08;;;;;;;0.30;0.30;;;;;;;8.26;100.00;100624.63;5077340;28;20305;-74
2023/11/07 05:14:34;;;;;;;1.05;0.75;;;;;;;8.25;100.00;100622.91;5077449;28;20043;-74
2023/11/07 05:16:59;;;;;;;0.70;0.50;;;;;;;8.27;100.00;100613.28;5077675;28;20394;-74
2023/11/07 05:19:25;;;;;;;1.15;0.68;;;;;;;8.25;100.00;100622.91;5077440;28;20457;-74
2023/11/07 05:21:50;;;;;;;1.77;0.50;;;;;;;8.25;100.00;100615.09;5077383;28;20033;-74
2023/11/07 05:24:16;;;;;;;1.20;0.50;;;;;;;8.26;100.00;100615.97;5077533;28;20037;-74
2023/11/07 05:26:43;;;;;;;1.90;0.93;;;;;;;8.24;100.00;100617.75;5077148;28;20035;-74
2023/11/07 05:29:12;;;;;;;1.15;0.70;;;;;;;8.20;100.00;100618.75;5077560;28;20343;-74
2023/11/07 05:31:38;;;;;;;0.90;0.70;;;;;;;8.19;100.00;100627.50;5077302;28;20082;-74
2023/11/07 05:34:03;;;;;;;1.95;0.63;;;;;;;8.19;100.00;100623.13;5077517;28;20568;-74
2023/11/07 05:36:29;;;;;;;2.03;1.00;;;;;;;8.17;100.00;100624.09;5076778;28;20216;-74
2023/11/07 05:38:55;;;;;;;2.30;0.88;;;;;;;8.18;100.00;100624.03;5077306;28;20020;-74
2023/11/07 05:41:21;;;;;;;0.82;0.52;;;;;;;8.16;100.00;100620.63;5076801;28;20040;-74
2023/11/07 05:43:46;;;;;;;1.80;0.70;;;;;;;8.14;100.00;100624.19;5076897;28;20396;-74
2023/11/07 05:46:12;;;;;;;0.68;0.50;;;;;;;8.12;100.00;100631.22;5077082;28;20051;-74
2023/11/07 05:48:37;;;;;;;1.75;0.80;;;;;;;8.12;100.00;100639.06;5076876;28;20108;-74
2023/11/07 05:51:03;;;;;;;2.63;0.82;;;;;;;8.13;100.00;100644.22;5077099;28;20248;-74
2023/11/07 05:53:28;;;;;;;1.48;0.73;;;;;;;8.17;100.00;100638.00;5076595;28;20044;-74
2023/11/07 05:55:55;;;;;;;3.90;0.95;;;;;;;8.20;100.00;100639.63;5076682;28;20281;-74
2023/11/07 05:58:20;;;;;;;2.45;0.77;;;;;;;8.16;100.00;100630.22;5076485;28;20036;-74
2023/11/07 06:00:46;;;;;;;0.70;0.68;;;;;;;8.17;100.00;100630.16;5076529;28;20032;-72
2023/11/07 06:03:14;;;;;;;0.93;0.70;;;;;;;8.23;100.00;100640.38;5076638;28;20075;-72
2023/11/07 06:05:43;;;;;;;0.88;0.80;;;;;;;8.25;100.00;100635.97;5076695;28;20153;-72
2023/11/07 06:08:09;;;;;;;;;;;;;;;8.31;100.00;100645.31;5076913;28;20051;-72
2023/11/07 06:10:35;;;;;;;1.48;0.77;;;;;;;8.34;100.00;100644.38;5076588;28;19946;-72
2023/11/07 06:13:03;;;;;;;1.33;0.73;;;;;;;8.38;100.00;100640.75;5079281;28;20036;-72
2023/11/07 06:15:28;;;;;;;2.95;0.90;;;;;;;8.41;100.00;100638.91;5079511;28;20358;-72
2023/11/07 06:17:54;;;;;;;1.45;0.82;;;;;;;8.44;100.00;100643.19;5078339;28;20024;-72
2023/11/07 06:20:21;;;;;;;2.90;0.90;;;;;;;8.39;100.00;100637.25;5076551;28;20047;-74
2023/11/07 06:22:46;;;;;;;2.17;0.90;;;;;;;8.30;100.00;100640.19;5076056;28;20029;-74
2023/11/07 06:25:13;;;;;;;2.50;0.80;;;;;;;8.29;100.00;100641.91;5076230;28;20046;-74
2023/11/07 06:27:38;;;;;;;3.90;0.88;;;;;;;8.26;100.00;100648.09;5075778;28;20036;-74
2023/11/07 06:30:06;;;;;;;2.05;1.10;;;;;;;8.24;100.00;100651.66;5092902;28;20032;-74
2023/11/07 06:32:32;;;;;;;0.75;0.75;;;;;;;8.22;100.00;100650.84;5095985;28;20039;-74
2023/11/07 06:34:57;;;;;;;2.25;0.85;;;;;;;8.21;100.00;100647.41;5096600;28;20040;-74
2023/11/07 06:37:23;;;;;;;2.25;1.10;;;;;;;8.18;100.00;100652.72;5096564;28;20043;-74
2023/11/07 06:39:49;;;;;;;1.67;0.95;;;;;;;8.12;100.00;100654.72;5096229;28;20024;-74
2023/11/07 06:42:17;;;;;;;1.65;0.88;;;;;;;8.17;100.00;100661.47;5095804;28;20036;-73
2023/11/07 06:44:42;;;;;;;3.20;0.85;;;;;;;8.17;100.00;100674.50;5095947;28;20242;-73
2023/11/07 06:47:09;;;;;;;1.13;0.75;;;;;;;8.19;100.00;100674.47;5096134;28;20035;-74
2023/11/07 06:49:34;;;;;;;1.30;0.82;;;;;;;8.18;100.00;100678.81;5095952;28;20040;-73
2023/11/07 06:51:59;;;;;;;2.65;0.82;;;;;;;8.14;100.00;100674.59;5096402;28;20044;-74
2023/11/07 06:54:25;;;;;;;1.63;0.98;;;;;;;8.17;100.00;100674.50;5096120;28;20201;-74
2023/11/07 06:56:51;;;;;;;1.48;1.10;;;;;;;8.19;100.00;100677.91;5095682;28;20036;-74
2023/11/07 06:59:17;;;;;;;0.50;0.50;;;;;;;8.16;100.00;100678.00;5096248;28;20036;-74
2023/11/07 07:01:44;;;;;;;1.00;0.60;;;;;;;8.16;100.00;100671.94;5096027;28;20036;-74
2023/11/07 07:04:11;;;;;;;2.70;0.90;;;;;;;8.11;100.00;100674.69;5095739;28;20331;-74
2023/11/07 07:06:36;;;;;;;3.80;0.68;;;;;;;8.11;100.00;100677.31;5103364;28;20043;-74
2023/11/07 07:09:04;;;;;;;0.85;0.63;;;;;;;8.10;100.00;100678.22;5116361;28;20100;-74
2023/11/07 07:11:30;;;;;;;1.25;0.80;;;;;;;8.12;100.00;100686.84;5115371;28;20035;-74
2023/11/07 07:13:55;;;;;;;1.60;0.77;;;;;;;8.11;100.00;100685.13;5116176;28;20022;-74
2023/11/07 07:16:23;;;;;;;0.52;0.40;;;;;;;8.03;100.00;100695.81;5115507;28;20031;-74
2023/11/07 07:18:49;;;;;;;0.80;0.52;;;;;;;8.03;100.00;100693.22;5114301;28;20352;-74
2023/11/07 07:21:16;;;;;;;0.70;0.60;;;;;;;8.01;100.00;100697.63;5115431;28;20320;-74
2023/11/07 07:23:46;;;;;;;4.63;0.80;;;;;;;7.97;100.00;100700.41;5114926;28;20083;-74
2023/11/07 07:26:14;;;;;;;3.08;0.73;;;;;;;7.96;100.00;100702.13;5114497;28;20032;-73
2023/11/07 07:28:40;;;;;;;1.02;0.57;;;;;;;7.97;100.00;100703.84;5114913;28;20125;-73
2023/11/07 07:31:06;;;;;;;1.48;0.65;;;;;;;8.00;100.00;100706.34;5115508;28;20035;-73
2023/11/07 07:33:35;;;;;;;2.30;0.90;;;;;;;8.01;100.00;100713.28;5114884;28;20084;-73
2023/11/07 07:36:04;;;;;;;5.22;0.80;;;;;;;8.00;100.00;100710.72;5115310;28;20035;-73
2023/11/07 07:38:35;;;;;;;2.55;0.90;;;;;;;8.03;100.00;100708.00;5115026;28;20031;-74
2023/11/07 07:41:00;;;;;;;2.13;0.80;;;;;;;8.03;100.00;100703.66;5115247;28;20041;-74
2023/11/07 07:43:27;;;;;;;1.50;0.80;;;;;;;8.03;100.00;100708.00;5115400;28;20051;-74
2023/11/07 07:45:53;;;;;;;2.92;0.90;;;;;;;8.01;100.00;100708.06;5115591;28;20269;-74
2023/11/07 07:48:19;;;;;;;6.38;1.35;;;;;;;8.02;100.00;100714.13;5115253;28;20069;-74
2023/11/07 07:50:46;;;;;;;2.28;1.08;;;;;;;8.03;100.00;100711.47;5115288;28;20327;-74
2023/11/07 07:53:15;;;;;;;0.90;0.80;;;;;;;8.01;100.00;100710.66;5115538;28;20036;-73
2023/11/07 07:55:43;;;;;;;4.38;1.25;;;;;;;8.05;100.00;100716.63;5114741;28;20031;-74
2023/11/07 07:58:09;;;;;;;2.13;1.20;;;;;;;8.07;100.00;100720.88;5115109;28;20069;-74
2023/11/07 08:00:37;;;;;;;1.30;1.20;;;;;;;8.13;100.00;100717.25;5115124;28;20348;-73
2023/11/07 08:03:09;;;;;;;4.55;1.60;;;;;;;8.13;100.00;100719.88;5115190;28;20070;-74
2023/11/07 08:05:38;;;;;;;2.75;1.30;;;;;;;8.13;100.00;100729.44;5115046;28;20035;-74
2023/11/07 08:08:04;;;;;;;;;;;;;;;8.16;100.00;100734.56;5115672;28;20078;-74
2023/11/07 08:10:29;;;;;;;2.25;1.33;;;;;;;8.18;100.00;100741.41;5114639;28;19920;-73
2023/11/07 08:12:56;;;;;;;2.90;1.58;;;;;;;8.20;100.00;100741.38;5096854;28;20107;-74
2023/11/07 08:15:26;;;;;;;1.60;1.23;;;;;;;8.26;100.00;100739.44;5114876;28;20228;-74
2023/11/07 08:17:54;;;;;;;2.67;1.55;;;;;;;8.24;100.00;100746.47;5114992;28;20059;-74
2023/11/07 08:20:20;;;;;;;2.50;1.60;;;;;;;8.26;100.00;100742.03;5114615;28;20070;-74
2023/11/07 08:22:47;;;;;;;3.92;1.35;;;;;;;8.30;100.00;100753.22;5115230;28;20291;-74
2023/11/07 08:25:14;;;;;;;8.18;2.00;;;;;;;8.30;100.00;100742.78;5114272;28;20035;-74
2023/11/07 08:27:48;;;;;;;2.67;1.60;;;;;;;8.34;100.00;100741.78;5111661;28;20065;-74
2023/11/07 08:30:20;;;;;;;5.30;1.60;;;;;;;8.33;100.00;100747.03;5088008;28;20036;-74
2023/11/07 08:32:46;;;;;;;3.47;1.75;;;;;;;8.34;100.00;100754.81;5089841;28;20036;-74
2023/11/07 08:35:15;;;;;;;1.90;1.67;;;;;;;8.33;100.00;100760.97;5087494;28;20067;-73
2023/11/07 08:37:41;;;;;;;7.25;1.83;;;;;;;8.31;100.00;100757.53;5072233;28;20386;-74
2023/11/07 08:40:09;;;;;;;11.07;2.05;;;;;;;8.34;100.00;100769.63;5073162;28;20375;-74
2023/11/07 08:42:35;;;;;;;3.95;1.80;;;;;;;8.38;100.00;100771.25;5072881;28;20050;-73
2023/11/07 08:45:01;;;;;;;2.72;1.63;;;;;;;8.39;100.00;100767.75;5081130;28;20039;-73
2023/11/07 08:47:27;;;;;;;2.85;1.80;;;;;;;8.41;100.00;100764.16;5078463;28;20036;-73
2023/11/07 08:49:57;;;;;;;2.70;1.63;;;;;;;8.41;100.00;100773.75;5080713;28;20560;-74
2023/11/07 08:52:25;;;;;;;3.42;1.50;;;;;;;8.43;100.00;100772.81;5073112;28;20879;-74
2023/11/07 08:54:51;;;;;;;1.90;1.77;;;;;;;8.45;100.00;100781.44;5078253;28;20265;-73
2023/11/07 08:57:17;;;;;;;3.85;1.63;;;;;;;8.52;100.00;100773.44;5081180;28;20036;-74
2023/11/07 08:59:44;;;;;;;3.38;2.15;;;;;;;8.57;100.00;100780.22;5080604;28;20077;-73
2023/11/07 09:02:11;;;;;;;7.07;1.60;;;;;;;8.60;100.00;100774.03;5081304;28;20041;-74
2023/11/07 09:04:37;;;;;;;2.95;1.77;;;;;;;8.60;100.00;100782.72;5080196;28;20075;-73
2023/11/07 09:07:03;;;;;;;2.42;1.52;;;;;;;8.63;100.00;100777.38;5078199;28;20048;-73
2023/11/07 09:09:30;;;;;;;2.35;1.70;;;;;;;8.64;100.00;100786.06;5079945;28;20054;-73
2023/11/07 09:11:56;;;;;;;10.02;1.58;;;;;;;8.68;100.00;100781.59;5083365;28;20028;-74
2023/11/07 09:14:21;;;;;;;6.38;2.22;;;;;;;8.70;100.00;100780.66;5082034;28;20051;-73
2023/11/07 09:16:47;;;;;;;5.10;1.90;;;;;;;8.71;100.00;100781.50;5078217;28;20307;-74
2023/11/07 09:19:13;;;;;;;4.55;1.90;;;;;;;8.70;100.00;100793.69;5080002;28;20036;-74
2023/11/07 09:21:39;;;;;;;5.75;2.03;;;;;;;8.73;100.00;100785.78;5071987;28;20118;-73
2023/11/07 09:24:04;;;;;;;2.72;1.58;;;;;;;8.77;100.00;100789.13;5079538;28;20377;-74
2023/11/07 09:26:30;;;;;;;1.95;1.40;;;;;;;8.80;100.00;100789.00;5062183;28;20032;-73
2023/11/07 09:28:55;;;;;;;2.17;1.35;;;;;;;8.80;100.00;100789.00;5078870;28;20039;-74
2023/11/07 09:31:21;;;;;;;1.58;1.20;;;;;;;8.83;100.00;100791.53;5079126;28;20032;-73
2023/11/07 09:33:46;;;;;;;4.85;1.40;;;;;;;8.86;100.00;100795.78;5080865;28;20110;-73
2023/11/07 09:36:12;;;;;;;3.17;1.60;;;;;;;8.87;100.00;100797.50;5080008;28;20072;-73
2023/11/07 09:38:38;;;;;;;5.05;1.50;;;;;;;8.90;100.00;100803.47;5078738;28;20035;-74
2023/11/07 09:41:04;;;;;;;6.88;1.33;;;;;;;8.91;100.00;100802.56;5093265;28;20036;-74
2023/11/07 09:43:30;;;;;;;10.90;2.17;;;;;;;8.94;100.00;100796.38;5089486;28;20407;-74
2023/11/07 09:46:00;;;;;;;5.22;2.30;;;;;;;8.98;100.00;100806.66;5082836;28;20032;-74
2023/11/07 09:48:26;;;;;;;4.38;1.85;;;;;;;9.00;100.00;100811.84;5080195;28;20265;-74
2023/11/07 09:50:54;;;;;;;4.45;1.60;;;;;;;9.00;100.00;100804.00;5092346;28;20036;-74
2023/11/07 09:53:20;;;;;;;4.40;2.10;;;;;;;9.01;100.00;100813.56;5086730;28;20036;-74
2023/11/07 09:55:45;;;;;;;3.65;1.90;;;;;;;9.08;100.00;100811.56;5082371;28;20031;-74
2023/11/07 09:58:19;;;;;;;3.38;1.70;;;;;;;9.08;100.00;100815.03;5083516;28;20044;-74
2023/11/07 10:00:45;;;;;;;4.07;1.58;;;;;;;9.10;100.00;100813.22;5081395;28;20027;-74
2023/11/07 10:03:11;;;;;;;6.57;1.92;;;;;;;9.10;100.00;100817.63;5094878;28;20043;-74
2023/11/07 10:05:39;;;;;;;5.50;1.83;;;;;;;9.11;100.00;100819.31;5087962;28;20066;-74
2023/11/07 10:08:06;;;;;;;7.57;1.90;;;;;;;9.12;100.00;100827.09;5093701;28;20085;-74
2023/11/07 10:10:31;;;;;;;3.20;2.15;;;;;;;9.14;100.00;100824.44;5084342;28;20053;-74
2023/11/07 10:13:07;;;;;;;9.65;2.42;;;;;;;9.13;100.00;100820.97;5090248;28;20042;-74
2023/11/07 10:15:32;;;;;;;7.20;2.25;;;;;;;9.19;100.00;100822.50;5081488;28;20032;-74
2023/11/07 10:18:08;;;;;;;5.57;2.55;;;;;;;9.19;100.00;100825.13;5076055;28;20063;-74
2023/11/07 10:20:36;;;;;;;5.40;2.17;;;;;;;9.22;100.00;100819.78;5084596;28;20031;-74
2023/11/07 10:23:01;;;;;;;6.78;2.00;;;;;;;9.24;100.00;100831.06;5089060;28;20024;-74
2023/11/07 10:25:27;;;;;;;6.53;1.60;;;;;;;9.27;100.00;100833.53;5080732;28;20358;-74
2023/11/07 10:27:54;;;;;;;6.65;2.00;;;;;;;9.30;100.00;100829.97;5076494;28;20040;-74
2023/11/07 10:30:20;;;;;;;6.63;1.88;;;;;;;9.30;100.00;100828.22;5084478;28;20036;-74
2023/11/07 10:32:47;;;;;;;6.53;1.50;;;;;;;9.32;100.00;100839.47;5090271;28;20410;-74
2023/11/07 10:35:13;;;;;;;7.95;1.65;;;;;;;9.34;100.00;100828.94;5075047;28;20082;-74
2023/11/07 10:37:39;;;;;;;6.05;1.63;;;;;;;9.37;100.00;100826.25;5083127;28;20040;-74
2023/11/07 10:40:05;;;;;;;7.07;1.58;;;;;;;9.39;100.00;100820.03;5078054;28;20103;-75
2023/11/07 10:42:34;;;;;;;8.32;1.33;;;;;;;9.40;100.00;100826.97;5080834;28;20381;-75
2023/11/07 10:45:03;;;;;;;5.53;1.90;;;;;;;9.43;100.00;100827.78;5084573;28;20036;-75
2023/11/07 10:47:35;;;;;;;4.72;1.98;;;;;;;9.46;100.00;100822.41;5081189;28;20028;-75
2023/11/07 10:50:02;;;;;;;6.35;1.35;;;;;;;9.49;100.00;100830.16;5063468;28;20028;-75
2023/11/07 10:52:28;;;;;;;9.95;1.98;;;;;;;9.52;100.00;100832.66;5082823;28;20031;-75
2023/11/07 10:54:54;;;;;;;4.10;1.38;;;;;;;9.55;100.00;100832.53;5084769;28;20286;-75
2023/11/07 10:57:23;;;;;;;6.90;1.40;;;;;;;9.55;100.00;100836.03;5083607;28;20366;-75
2023/11/07 10:59:50;;;;;;;5.50;1.65;;;;;;;9.57;100.00;100830.75;5079772;28;20104;-75
2023/11/07 11:02:16;;;;;;;6.50;1.77;;;;;;;9.61;100.00;100832.34;5075382;28;20351;-75
2023/11/07 11:04:43;;;;;;;9.05;1.60;;;;;;;9.64;100.00;100832.22;5087805;28;20040;-75
2023/11/07 11:07:11;;;;;;;8.13;2.22;;;;;;;9.66;100.00;100834.75;5082816;28;20327;-75
2023/11/07 11:09:38;;;;;;;4.38;1.63;;;;;;;9.68;100.00;100831.19;5082862;28;20133;-75
2023/11/07 11:12:06;;;;;;;13.32;2.10;;;;;;;9.69;100.00;100830.28;5081584;28;20080;-75
2023/11/07 11:14:32;;;;;;;7.07;1.27;;;;;;;9.72;100.00;100830.16;5075760;28;20020;-75
2023/11/07 11:17:21;;;;;;;5.85;1.80;;;;;;;9.74;100.00;100824.88;5079790;28;20031;-75
2023/11/07 11:20:00;;;;;;;5.55;1.40;;;;;;;9.75;100.00;100840.53;5080743;28;20043;-75
2023/11/07 11:22:33;;;;;;;;;;;;;;;9.77;100.00;100833.47;5083277;28;20101;-75
2023/11/07 11:25:17;;;;;;;2.90;2.13;;;;;;;9.78;100.00;100832.53;5087902;28;19975;-75
2023/11/07 11:27:48;;;;;;;8.57;3.30;;;;;;;9.78;100.00;100832.53;5085989;28;20364;-75